Flight Track Log - Related Links

Times and Time Zones

All times are in EST time to prevent confusion due to time zone crossing. See the N588AC flight status page for this flight to view local times or setup timezone preferences in your user account.

Time Position Orientation Groundspeed Altitude Reporting Facility
EST Latitude Longitude Course Direction KTS MPH feet Rate Location/Type
Mon 03:01:25 PM 30.0589 -90.0294 North 194 223 600  Level Houston Center
Mon 03:03:09 PM 30.1672 -90.0153 North 255 293 2,000 724 Climbing Houston Center
Mon 03:03:21 PM 30.1719 -90.0142 11° North 233 268 2,000 1,297 Level Houston Center
Mon 03:04:23 PM 30.2331 -89.9797 26° Northeast 247 284 3,600 2,419 Climbing Houston Center
Mon 03:05:25 PM 30.3200 -89.9578 12° North 260 299 7,000 3,048 Climbing Houston Center
Mon 03:06:27 PM 30.3989 -89.9378 12° North 281 323 9,900 2,784 Climbing Houston Center
Mon 03:07:30 PM 30.4575 -89.8756 42° Northeast 301 346 12,800 2,400 Climbing Houston Center
Mon 03:08:32 PM 30.4986 -89.7897 61° Northeast 300 345 14,900 1,258 Climbing Houston Center
Mon 03:09:34 PM 30.5475 -89.6869 61° Northeast 352 405 15,400 968 Climbing Houston Center
Mon 03:10:36 PM 30.6200 -89.6017 45° Northeast 369 425 16,900 1,355 Climbing Houston Center
Mon 03:11:38 PM 30.7000 -89.5069 46° Northeast 366 421 18,200 1,306 Climbing Houston Center
Mon 03:12:40 PM 30.7656 -89.4306 45° Northeast 373 429 19,600 1,584 Climbing Houston Center
Mon 03:13:43 PM 30.8506 -89.3281 46° Northeast 369 425 21,500 1,680 Climbing Houston Center
Mon 03:14:45 PM 30.9206 -89.2442 46° Northeast 365 420 23,100 1,645 Climbing Houston Center
Mon 03:15:47 PM 30.9897 -89.1603 46° Northeast 363 418 24,900 1,742 Climbing Houston Center
Mon 03:16:49 PM 31.0586 -89.0761 46° Northeast 362 417 26,700 1,694 Climbing Houston Center
Mon 03:17:51 PM 31.1267 -88.9917 47° Northeast 360 414 28,400 1,403 Climbing Houston Center
Mon 03:18:53 PM 31.2069 -88.8953 46° Northeast 368 423 29,600 1,104 Climbing Houston Center
Mon 03:19:56 PM 31.2825 -88.8047 46° Northeast 383 441 30,700 1,008 Climbing Houston Center
Mon 03:20:58 PM 31.3614 -88.7094 46° Northeast 399 459 31,700 1,055 Climbing Houston Center
Mon 03:22:41 PM 31.5061 -88.5372 45° Northeast 392 451 33,600 1,067 Climbing Atlanta Center
Mon 03:23:41 PM 31.5847 -88.4414 46° Northeast 397 457 34,600 1,000 Climbing Atlanta Center
Mon 03:24:41 PM 31.6653 -88.3453 45° Northeast 403 464 35,600 1,000 Climbing Atlanta Center
Mon 03:25:41 PM 31.7417 -88.2486 47° Northeast 403 464 36,600 700 Climbing Atlanta Center
Mon 03:26:41 PM 31.8222 -88.1497 46° Northeast 408 470 37,000 200 Climbing Atlanta Center
Mon 03:27:41 PM 31.9050 -88.0461 47° Northeast 418 481 37,000  Level Atlanta Center
Mon 03:28:41 PM 31.9919 -87.9397 46° Northeast 431 496 37,000  Level Atlanta Center
Mon 03:29:41 PM 32.0808 -87.8308 46° Northeast 442 509 37,000  Level Atlanta Center
Mon 03:30:41 PM 32.1697 -87.7169 47° Northeast 454 522 37,000  Level Atlanta Center
Mon 03:31:41 PM 32.2564 -87.6075 47° Northeast 454 522 37,000  Level Atlanta Center
Mon 03:32:41 PM 32.3472 -87.4981 45° Northeast 459 528 37,000  Level Atlanta Center
Mon 03:33:41 PM 32.4381 -87.3858 46° Northeast 459 528 37,000  Level Atlanta Center
Mon 03:34:41 PM 32.5247 -87.2661 49° Northeast 469 540 37,000  Level Atlanta Center
Mon 03:35:41 PM 32.6131 -87.1533 47° Northeast 469 540 37,000  Level Atlanta Center
Mon 03:36:41 PM 32.6994 -87.0403 48° Northeast 469 540 37,000  Level Atlanta Center
Mon 03:37:41 PM 32.7878 -86.9272 47° Northeast 464 534 37,000  Level Atlanta Center
Mon 03:38:41 PM 32.8758 -86.8139 47° Northeast 464 534 37,000  Level Atlanta Center
Mon 03:39:41 PM 32.9661 -86.7003 47° Northeast 464 534 37,000 -50 Level Atlanta Center
Mon 03:40:41 PM 33.0564 -86.5817 48° Northeast 470 541 36,900 -250 Descending Atlanta Center
Mon 03:41:41 PM 33.1464 -86.4628 48° Northeast 470 541 36,500 -400 Descending Atlanta Center
Mon 03:42:41 PM 33.2342 -86.3483 47° Northeast 470 541 36,100 -250 Descending Atlanta Center
Mon 03:43:41 PM 33.3239 -86.2364 46° Northeast 470 541 36,000 -50 Descending Atlanta Center
Mon 03:44:41 PM 33.4094 -86.1192 49° Northeast 465 535 36,000  Level Atlanta Center
Mon 03:45:41 PM 33.4989 -86.0067 46° Northeast 465 535 36,000  Level Atlanta Center
Mon 03:46:41 PM 33.5672 -85.9136 49° Northeast 465 535 36,000  Level Atlanta Center
Mon 03:47:41 PM 33.6628 -85.7958 46° Northeast 459 528 36,000  Level Atlanta Center
Mon 03:48:41 PM 33.7478 -85.6803 48° Northeast 459 528 36,000  Level Atlanta Center
Mon 03:49:41 PM 33.8328 -85.5692 47° Northeast 459 528 36,000  Level Atlanta Center
Mon 03:50:41 PM 33.9281 -85.4433 48° Northeast 464 534 36,000  Level Atlanta Center
Mon 03:51:41 PM 34.0131 -85.3269 49° Northeast 459 528 36,000  Level Atlanta Center
Mon 03:52:41 PM 34.0997 -85.2103 48° Northeast 459 528 36,000  Level Atlanta Center
Mon 03:53:41 PM 34.1864 -85.0961 47° Northeast 464 534 36,000  Level Atlanta Center
Mon 03:54:41 PM 34.2708 -84.9764 49° Northeast 464 534 36,000  Level Atlanta Center
Mon 03:55:41 PM 34.3531 -84.8539 51° Northeast 464 534 36,000  Level Atlanta Center
Mon 03:56:41 PM 34.4372 -84.7339 50° Northeast 464 534 36,000  Level Atlanta Center
Mon 03:57:41 PM 34.5108 -84.6261 50° Northeast 459 528 36,000  Level Atlanta Center
Mon 03:58:41 PM 34.5947 -84.5031 50° Northeast 459 528 36,000  Level Atlanta Center
Mon 03:59:41 PM 34.6786 -84.3875 49° Northeast 464 534 36,000  Level Atlanta Center
Mon 04:00:41 PM 34.7603 -84.2639 51° Northeast 464 534 36,000  Level Atlanta Center
Mon 04:01:41 PM 34.8503 -84.1325 50° Northeast 464 534 36,000  Level Atlanta Center
Mon 04:02:41 PM 34.9339 -84.0108 50° Northeast 459 528 36,000  Level Atlanta Center
Mon 04:03:41 PM 35.0172 -83.8892 50° Northeast 459 528 36,000  Level Atlanta Center
Mon 04:04:41 PM 35.1003 -83.7672 50° Northeast 459 528 36,000  Level Atlanta Center
Mon 04:05:41 PM 35.1836 -83.6422 51° Northeast 459 528 36,000  Level Atlanta Center
Mon 04:06:41 PM 35.2706 -83.5172 50° Northeast 465 535 36,000  Level Atlanta Center
Mon 04:07:41 PM 35.3536 -83.3969 50° Northeast 471 542 36,000  Level Atlanta Center
Mon 04:08:41 PM 35.4383 -83.2689 51° Northeast 471 542 36,000 -50 Level Atlanta Center
Mon 04:09:41 PM 35.5128 -83.1533 52° Northeast 471 542 35,900 -150 Descending Atlanta Center
Mon 04:10:41 PM 35.6033 -83.0144 51° Northeast 471 542 35,700 -350 Descending Atlanta Center
Mon 04:11:41 PM 35.6817 -82.8958 51° Northeast 481 554 35,200 -350 Descending Atlanta Center
Mon 04:12:41 PM 35.7700 -82.7667 50° Northeast 486 559 35,000 -300 Descending Atlanta Center
Mon 04:13:41 PM 35.8564 -82.6372 51° Northeast 486 559 34,600 -550 Descending Atlanta Center
Mon 04:14:41 PM 35.9403 -82.5025 52° Northeast 486 559 33,900 -750 Descending Atlanta Center
Mon 04:15:41 PM 36.0239 -82.3700 52° Northeast 491 565 33,100 -800 Descending Atlanta Center
Mon 04:16:41 PM 36.1178 -82.2267 51° Northeast 491 565 32,300 -800 Descending Atlanta Center
Mon 04:17:41 PM 36.1992 -82.0936 53° Northeast 491 565 31,500 -800 Descending Atlanta Center
Mon 04:18:41 PM 36.2661 -81.9736 55° Northeast 481 554 30,700 -1,150 Descending Atlanta Center
Mon 04:19:41 PM 36.3575 -81.8319 51° Northeast 481 554 29,200 -1,600 Descending Atlanta Center
Mon 04:20:41 PM 36.4406 -81.6981 52° Northeast 481 554 27,500 -1,550 Descending Atlanta Center
Mon 04:21:41 PM 36.5111 -81.5797 53° Northeast 481 554 26,100 -1,800 Descending Atlanta Center
Mon 04:22:41 PM 36.5958 -81.4350 54° Northeast 476 548 23,900 -2,450 Descending Atlanta Center
Mon 04:23:41 PM 36.6661 -81.3161 54° Northeast 453 521 21,200 -2,750 Descending Atlanta Center
Mon 04:24:41 PM 36.7386 -81.1997 52° Northeast 435 501 18,400 -2,550 Descending Atlanta Center
Mon 04:25:41 PM 36.8025 -81.0833 56° Northeast 414 476 16,100 -2,300 Descending Atlanta Center
Mon 04:26:41 PM 36.8686 -80.9719 53° Northeast 408 470 13,800 -2,250 Descending Atlanta Center
Mon 04:27:41 PM 36.9203 -80.8711 57° Northeast 396 456 11,600 -2,250 Descending Atlanta Center
Mon 04:28:41 PM 36.9611 -80.7581 66° East 371 427 9,300 -2,300 Descending Atlanta Center
Mon 04:30:00 PM 37.0732 -80.6225 53° Northeast  Level FlightAware Approximate

Login

Don't have an account? Register now (free) for customized features, flight alerts, and more!